sensor_id;sensor_type;location;lat;lon;timestamp;temperature;humidity
25732;DHT22;13585;50.864;4.406;2023-07-13T00:00:12;29.50;41.60
25732;DHT22;13585;50.864;4.406;2023-07-13T00:02:37;29.40;41.60
25732;DHT22;13585;50.864;4.406;2023-07-13T00:05:03;29.40;41.60
25732;DHT22;13585;50.864;4.406;2023-07-13T00:07:29;29.40;41.60
25732;DHT22;13585;50.864;4.406;2023-07-13T00:09:56;29.40;41.60
25732;DHT22;13585;50.864;4.406;2023-07-13T00:12:25;29.40;41.70
25732;DHT22;13585;50.864;4.406;2023-07-13T00:14:51;29.40;41.70
25732;DHT22;13585;50.864;4.406;2023-07-13T00:17:16;29.40;41.70
25732;DHT22;13585;50.864;4.406;2023-07-13T00:19:42;29.40;41.70
25732;DHT22;13585;50.864;4.406;2023-07-13T00:22:08;29.40;41.80
25732;DHT22;13585;50.864;4.406;2023-07-13T00:24:33;29.40;41.90
25732;DHT22;13585;50.864;4.406;2023-07-13T00:27:01;29.40;41.90
25732;DHT22;13585;50.864;4.406;2023-07-13T00:29:27;29.40;41.90
25732;DHT22;13585;50.864;4.406;2023-07-13T00:31:52;29.30;41.90
25732;DHT22;13585;50.864;4.406;2023-07-13T00:34:18;29.40;42.00
25732;DHT22;13585;50.864;4.406;2023-07-13T00:36:44;29.30;42.00
25732;DHT22;13585;50.864;4.406;2023-07-13T00:39:09;29.30;42.00
25732;DHT22;13585;50.864;4.406;2023-07-13T00:41:35;29.30;42.00
25732;DHT22;13585;50.864;4.406;2023-07-13T00:44:02;29.30;42.00
25732;DHT22;13585;50.864;4.406;2023-07-13T00:46:32;29.30;42.10
25732;DHT22;13585;50.864;4.406;2023-07-13T00:49:02;29.30;42.20
25732;DHT22;13585;50.864;4.406;2023-07-13T00:51:48;29.30;42.20
25732;DHT22;13585;50.864;4.406;2023-07-13T00:54:19;29.20;42.20
25732;DHT22;13585;50.864;4.406;2023-07-13T00:56:50;29.30;42.20
25732;DHT22;13585;50.864;4.406;2023-07-13T00:59:17;29.30;42.20
25732;DHT22;13585;50.864;4.406;2023-07-13T01:01:44;29.30;42.20
25732;DHT22;13585;50.864;4.406;2023-07-13T01:04:10;29.30;42.30
25732;DHT22;13585;50.864;4.406;2023-07-13T01:06:54;29.20;42.30
25732;DHT22;13585;50.864;4.406;2023-07-13T01:09:20;29.20;42.40
25732;DHT22;13585;50.864;4.406;2023-07-13T01:11:47;29.30;42.40
25732;DHT22;13585;50.864;4.406;2023-07-13T01:14:13;29.20;42.30
25732;DHT22;13585;50.864;4.406;2023-07-13T01:16:40;29.20;42.40
25732;DHT22;13585;50.864;4.406;2023-07-13T01:22:17;29.20;42.50
25732;DHT22;13585;50.864;4.406;2023-07-13T01:24:45;29.20;43.10
25732;DHT22;13585;50.864;4.406;2023-07-13T01:27:15;29.20;42.50
25732;DHT22;13585;50.864;4.406;2023-07-13T01:29:42;29.20;42.50
25732;DHT22;13585;50.864;4.406;2023-07-13T01:32:15;29.20;42.50
25732;DHT22;13585;50.864;4.406;2023-07-13T01:34:41;29.20;42.60
25732;DHT22;13585;50.864;4.406;2023-07-13T01:37:11;29.20;43.30
25732;DHT22;13585;50.864;4.406;2023-07-13T01:39:37;29.20;42.60
25732;DHT22;13585;50.864;4.406;2023-07-13T01:42:03;29.20;42.60
25732;DHT22;13585;50.864;4.406;2023-07-13T01:44:33;29.20;42.60
25732;DHT22;13585;50.864;4.406;2023-07-13T01:46:58;29.20;42.70
25732;DHT22;13585;50.864;4.406;2023-07-13T01:49:24;29.20;42.70
25732;DHT22;13585;50.864;4.406;2023-07-13T01:51:50;29.20;42.70
25732;DHT22;13585;50.864;4.406;2023-07-13T01:54:15;29.20;42.80
25732;DHT22;13585;50.864;4.406;2023-07-13T01:56:41;29.10;42.70
25732;DHT22;13585;50.864;4.406;2023-07-13T01:59:08;29.10;42.80
25732;DHT22;13585;50.864;4.406;2023-07-13T02:01:33;29.10;42.80
25732;DHT22;13585;50.864;4.406;2023-07-13T02:03:59;29.10;42.80
25732;DHT22;13585;50.864;4.406;2023-07-13T02:06:25;29.10;42.80
25732;DHT22;13585;50.864;4.406;2023-07-13T02:08:50;29.10;42.80
25732;DHT22;13585;50.864;4.406;2023-07-13T02:11:16;29.10;42.80
25732;DHT22;13585;50.864;4.406;2023-07-13T02:13:42;29.10;42.90
25732;DHT22;13585;50.864;4.406;2023-07-13T02:16:08;29.10;43.00
25732;DHT22;13585;50.864;4.406;2023-07-13T02:18:33;29.10;43.00
25732;DHT22;13585;50.864;4.406;2023-07-13T02:20:59;29.10;43.00
25732;DHT22;13585;50.864;4.406;2023-07-13T02:23:25;29.10;43.00
25732;DHT22;13585;50.864;4.406;2023-07-13T02:25:55;29.10;43.00
25732;DHT22;13585;50.864;4.406;2023-07-13T02:28:21;29.10;43.10
25732;DHT22;13585;50.864;4.406;2023-07-13T02:30:46;29.00;43.00
25732;DHT22;13585;50.864;4.406;2023-07-13T02:33:12;29.10;43.10
25732;DHT22;13585;50.864;4.406;2023-07-13T02:35:37;29.10;43.10
25732;DHT22;13585;50.864;4.406;2023-07-13T02:38:03;29.00;43.20
25732;DHT22;13585;50.864;4.406;2023-07-13T02:40:29;29.00;43.10
25732;DHT22;13585;50.864;4.406;2023-07-13T02:42:55;29.00;43.20
25732;DHT22;13585;50.864;4.406;2023-07-13T02:45:20;29.00;43.20
25732;DHT22;13585;50.864;4.406;2023-07-13T02:47:46;29.00;43.20
25732;DHT22;13585;50.864;4.406;2023-07-13T02:50:11;29.00;43.20
25732;DHT22;13585;50.864;4.406;2023-07-13T02:52:37;29.00;43.20
25732;DHT22;13585;50.864;4.406;2023-07-13T02:55:04;29.00;43.30
25732;DHT22;13585;50.864;4.406;2023-07-13T02:57:31;29.00;43.30
25732;DHT22;13585;50.864;4.406;2023-07-13T02:59:58;29.00;43.30
25732;DHT22;13585;50.864;4.406;2023-07-13T03:02:24;29.00;43.40
25732;DHT22;13585;50.864;4.406;2023-07-13T03:04:50;29.00;43.40
25732;DHT22;13585;50.864;4.406;2023-07-13T03:07:16;29.00;43.40
25732;DHT22;13585;50.864;4.406;2023-07-13T03:09:42;29.00;43.40
25732;DHT22;13585;50.864;4.406;2023-07-13T03:12:08;28.90;43.40
25732;DHT22;13585;50.864;4.406;2023-07-13T03:14:33;29.00;43.50
25732;DHT22;13585;50.864;4.406;2023-07-13T03:16:59;28.90;43.50
25732;DHT22;13585;50.864;4.406;2023-07-13T03:19:24;28.90;43.50
25732;DHT22;13585;50.864;4.406;2023-07-13T03:21:50;28.90;43.50
25732;DHT22;13585;50.864;4.406;2023-07-13T03:24:16;28.90;43.50
25732;DHT22;13585;50.864;4.406;2023-07-13T03:26:41;29.00;43.60
25732;DHT22;13585;50.864;4.406;2023-07-13T03:29:07;29.00;43.60
25732;DHT22;13585;50.864;4.406;2023-07-13T03:31:35;28.90;43.50
25732;DHT22;13585;50.864;4.406;2023-07-13T03:34:01;28.90;43.60
25732;DHT22;13585;50.864;4.406;2023-07-13T03:36:29;28.90;43.60
25732;DHT22;13585;50.864;4.406;2023-07-13T03:38:57;28.90;43.70
25732;DHT22;13585;50.864;4.406;2023-07-13T03:41:24;28.90;43.70
25732;DHT22;13585;50.864;4.406;2023-07-13T03:43:50;28.90;43.60
25732;DHT22;13585;50.864;4.406;2023-07-13T03:46:17;28.90;43.60
25732;DHT22;13585;50.864;4.406;2023-07-13T03:48:44;28.90;43.60
25732;DHT22;13585;50.864;4.406;2023-07-13T03:51:11;28.90;43.70
25732;DHT22;13585;50.864;4.406;2023-07-13T03:53:39;28.90;43.60
25732;DHT22;13585;50.864;4.406;2023-07-13T03:56:06;29.00;43.70
25732;DHT22;13585;50.864;4.406;2023-07-13T03:58:34;29.00;43.70
25732;DHT22;13585;50.864;4.406;2023-07-13T04:01:01;28.90;43.70
25732;DHT22;13585;50.864;4.406;2023-07-13T04:03:27;28.90;43.70
25732;DHT22;13585;50.864;4.406;2023-07-13T04:05:56;28.90;43.70
25732;DHT22;13585;50.864;4.406;2023-07-13T04:08:34;28.90;43.80
25732;DHT22;13585;50.864;4.406;2023-07-13T04:11:00;28.90;43.90
25732;DHT22;13585;50.864;4.406;2023-07-13T04:13:26;28.90;43.80
25732;DHT22;13585;50.864;4.406;2023-07-13T04:15:53;28.90;43.80
25732;DHT22;13585;50.864;4.406;2023-07-13T04:18:19;28.90;43.80
25732;DHT22;13585;50.864;4.406;2023-07-13T04:20:46;28.90;43.90
25732;DHT22;13585;50.864;4.406;2023-07-13T04:23:13;28.90;43.90
25732;DHT22;13585;50.864;4.406;2023-07-13T04:25:38;28.90;43.90
25732;DHT22;13585;50.864;4.406;2023-07-13T04:28:04;28.90;43.90
25732;DHT22;13585;50.864;4.406;2023-07-13T04:30:31;28.90;44.00
25732;DHT22;13585;50.864;4.406;2023-07-13T04:32:56;28.90;44.00
25732;DHT22;13585;50.864;4.406;2023-07-13T04:35:22;28.90;44.00
25732;DHT22;13585;50.864;4.406;2023-07-13T04:37:49;28.90;44.10
25732;DHT22;13585;50.864;4.406;2023-07-13T04:40:18;28.90;44.10
25732;DHT22;13585;50.864;4.406;2023-07-13T04:42:45;28.90;44.10
25732;DHT22;13585;50.864;4.406;2023-07-13T04:45:11;28.90;44.20
25732;DHT22;13585;50.864;4.406;2023-07-13T04:47:38;28.90;44.20
25732;DHT22;13585;50.864;4.406;2023-07-13T04:50:04;28.90;44.20
25732;DHT22;13585;50.864;4.406;2023-07-13T04:52:29;28.90;44.20
25732;DHT22;13585;50.864;4.406;2023-07-13T04:54:55;28.90;44.30
25732;DHT22;13585;50.864;4.406;2023-07-13T04:57:21;28.90;44.30
25732;DHT22;13585;50.864;4.406;2023-07-13T04:59:46;28.90;44.30
25732;DHT22;13585;50.864;4.406;2023-07-13T05:02:12;28.90;44.30
25732;DHT22;13585;50.864;4.406;2023-07-13T05:04:37;28.90;44.40
25732;DHT22;13585;50.864;4.406;2023-07-13T05:07:05;28.90;44.40
25732;DHT22;13585;50.864;4.406;2023-07-13T05:09:31;28.90;44.40
25732;DHT22;13585;50.864;4.406;2023-07-13T05:11:57;28.90;44.50
25732;DHT22;13585;50.864;4.406;2023-07-13T05:14:22;28.90;44.50
25732;DHT22;13585;50.864;4.406;2023-07-13T05:16:48;28.90;44.50
25732;DHT22;13585;50.864;4.406;2023-07-13T05:19:13;28.90;44.50
25732;DHT22;13585;50.864;4.406;2023-07-13T05:21:39;28.90;44.50
25732;DHT22;13585;50.864;4.406;2023-07-13T05:24:06;28.90;44.50
25732;DHT22;13585;50.864;4.406;2023-07-13T05:26:44;28.90;44.60
25732;DHT22;13585;50.864;4.406;2023-07-13T05:29:19;28.80;44.70
25732;DHT22;13585;50.864;4.406;2023-07-13T05:31:45;28.90;44.80
25732;DHT22;13585;50.864;4.406;2023-07-13T05:34:31;28.90;44.80
25732;DHT22;13585;50.864;4.406;2023-07-13T05:36:56;28.90;45.00
25732;DHT22;13585;50.864;4.406;2023-07-13T05:39:22;29.00;45.00
25732;DHT22;13585;50.864;4.406;2023-07-13T05:41:48;29.00;45.00
25732;DHT22;13585;50.864;4.406;2023-07-13T05:44:14;28.90;45.00
25732;DHT22;13585;50.864;4.406;2023-07-13T05:46:39;29.00;45.10
25732;DHT22;13585;50.864;4.406;2023-07-13T05:49:14;29.00;45.20
25732;DHT22;13585;50.864;4.406;2023-07-13T05:51:40;29.00;45.20
25732;DHT22;13585;50.864;4.406;2023-07-13T05:54:27;28.90;45.20
25732;DHT22;13585;50.864;4.406;2023-07-13T05:57:02;28.90;45.20
25732;DHT22;13585;50.864;4.406;2023-07-13T05:59:42;29.00;45.40
25732;DHT22;13585;50.864;4.406;2023-07-13T06:04:50;29.00;45.40
25732;DHT22;13585;50.864;4.406;2023-07-13T06:10:07;29.00;45.50
25732;DHT22;13585;50.864;4.406;2023-07-13T06:12:42;28.90;45.30
25732;DHT22;13585;50.864;4.406;2023-07-13T06:20:30;29.00;45.50
25732;DHT22;13585;50.864;4.406;2023-07-13T06:22:58;28.90;45.60
25732;DHT22;13585;50.864;4.406;2023-07-13T06:25:27;29.00;45.50
25732;DHT22;13585;50.864;4.406;2023-07-13T06:28:00;29.00;45.60
25732;DHT22;13585;50.864;4.406;2023-07-13T06:30:25;29.00;45.50
25732;DHT22;13585;50.864;4.406;2023-07-13T06:32:51;29.10;45.40
25732;DHT22;13585;50.864;4.406;2023-07-13T06:35:17;29.10;45.30
25732;DHT22;13585;50.864;4.406;2023-07-13T06:37:42;29.00;45.40
25732;DHT22;13585;50.864;4.406;2023-07-13T06:40:09;28.90;45.40
25732;DHT22;13585;50.864;4.406;2023-07-13T06:42:35;29.00;45.50
25732;DHT22;13585;50.864;4.406;2023-07-13T06:45:01;29.00;45.60
25732;DHT22;13585;50.864;4.406;2023-07-13T06:47:27;28.90;45.60
25732;DHT22;13585;50.864;4.406;2023-07-13T06:49:52;28.90;45.60
25732;DHT22;13585;50.864;4.406;2023-07-13T06:52:18;28.90;45.60
25732;DHT22;13585;50.864;4.406;2023-07-13T06:54:46;28.90;45.60
25732;DHT22;13585;50.864;4.406;2023-07-13T06:57:12;28.90;45.60
25732;DHT22;13585;50.864;4.406;2023-07-13T06:59:37;29.00;45.60
25732;DHT22;13585;50.864;4.406;2023-07-13T07:02:03;29.00;45.60
25732;DHT22;13585;50.864;4.406;2023-07-13T07:04:29;28.90;45.60
25732;DHT22;13585;50.864;4.406;2023-07-13T07:06:54;28.90;45.60
25732;DHT22;13585;50.864;4.406;2023-07-13T07:09:20;29.00;45.70
25732;DHT22;13585;50.864;4.406;2023-07-13T07:11:45;28.90;45.70
25732;DHT22;13585;50.864;4.406;2023-07-13T07:14:17;29.00;45.80
25732;DHT22;13585;50.864;4.406;2023-07-13T07:16:49;28.90;45.70
25732;DHT22;13585;50.864;4.406;2023-07-13T07:19:16;29.00;45.80
25732;DHT22;13585;50.864;4.406;2023-07-13T07:21:41;29.00;45.70
25732;DHT22;13585;50.864;4.406;2023-07-13T07:24:07;29.00;45.70
25732;DHT22;13585;50.864;4.406;2023-07-13T07:26:33;29.00;45.70
25732;DHT22;13585;50.864;4.406;2023-07-13T07:28:59;29.00;45.70
25732;DHT22;13585;50.864;4.406;2023-07-13T07:31:25;29.00;46.40
25732;DHT22;13585;50.864;4.406;2023-07-13T07:33:53;29.00;45.70
25732;DHT22;13585;50.864;4.406;2023-07-13T07:36:37;29.00;45.80
25732;DHT22;13585;50.864;4.406;2023-07-13T07:39:08;29.00;45.80
25732;DHT22;13585;50.864;4.406;2023-07-13T07:41:36;29.10;45.80
25732;DHT22;13585;50.864;4.406;2023-07-13T07:44:02;29.10;45.80
25732;DHT22;13585;50.864;4.406;2023-07-13T07:46:28;29.00;45.70
25732;DHT22;13585;50.864;4.406;2023-07-13T07:48:55;29.00;45.70
25732;DHT22;13585;50.864;4.406;2023-07-13T07:51:21;29.00;45.70
25732;DHT22;13585;50.864;4.406;2023-07-13T07:53:47;29.00;45.70
25732;DHT22;13585;50.864;4.406;2023-07-13T07:56:13;29.00;45.70
25732;DHT22;13585;50.864;4.406;2023-07-13T07:58:38;29.00;45.70
25732;DHT22;13585;50.864;4.406;2023-07-13T08:01:05;29.10;45.70
25732;DHT22;13585;50.864;4.406;2023-07-13T08:03:31;29.00;45.60
25732;DHT22;13585;50.864;4.406;2023-07-13T08:05:57;29.10;45.70
25732;DHT22;13585;50.864;4.406;2023-07-13T08:08:23;29.10;45.70
25732;DHT22;13585;50.864;4.406;2023-07-13T08:10:48;29.00;45.70
25732;DHT22;13585;50.864;4.406;2023-07-13T08:13:14;29.10;45.80
25732;DHT22;13585;50.864;4.406;2023-07-13T08:15:39;29.10;45.70
25732;DHT22;13585;50.864;4.406;2023-07-13T08:18:05;29.10;45.70
25732;DHT22;13585;50.864;4.406;2023-07-13T08:20:32;29.00;45.70
25732;DHT22;13585;50.864;4.406;2023-07-13T08:22:58;29.00;45.70
25732;DHT22;13585;50.864;4.406;2023-07-13T08:25:24;29.00;45.70
25732;DHT22;13585;50.864;4.406;2023-07-13T08:27:50;29.00;45.70
25732;DHT22;13585;50.864;4.406;2023-07-13T08:30:15;29.00;45.70
25732;DHT22;13585;50.864;4.406;2023-07-13T08:32:41;29.00;45.60
25732;DHT22;13585;50.864;4.406;2023-07-13T08:35:07;29.00;45.70
25732;DHT22;13585;50.864;4.406;2023-07-13T08:37:48;29.00;45.70
25732;DHT22;13585;50.864;4.406;2023-07-13T08:40:13;29.00;45.70
25732;DHT22;13585;50.864;4.406;2023-07-13T08:42:57;29.10;45.60
25732;DHT22;13585;50.864;4.406;2023-07-13T08:49:09;29.00;45.70
25732;DHT22;13585;50.864;4.406;2023-07-13T08:58:48;29.00;45.60
25732;DHT22;13585;50.864;4.406;2023-07-13T09:04:29;29.00;45.70
25732;DHT22;13585;50.864;4.406;2023-07-13T09:10:53;28.90;45.50
25732;DHT22;13585;50.864;4.406;2023-07-13T09:16:12;29.00;45.50
25732;DHT22;13585;50.864;4.406;2023-07-13T09:22:15;29.00;45.60
25732;DHT22;13585;50.864;4.406;2023-07-13T09:24:50;29.00;45.50
25732;DHT22;13585;50.864;4.406;2023-07-13T09:27:21;29.00;45.50
25732;DHT22;13585;50.864;4.406;2023-07-13T09:32:45;28.90;45.50
25732;DHT22;13585;50.864;4.406;2023-07-13T09:35:17;29.00;45.50
25732;DHT22;13585;50.864;4.406;2023-07-13T09:37:45;29.00;45.50
25732;DHT22;13585;50.864;4.406;2023-07-13T09:40:22;29.00;45.50
25732;DHT22;13585;50.864;4.406;2023-07-13T09:42:52;29.00;45.60
25732;DHT22;13585;50.864;4.406;2023-07-13T09:45:28;29.00;45.60
25732;DHT22;13585;50.864;4.406;2023-07-13T09:48:05;29.00;45.70
25732;DHT22;13585;50.864;4.406;2023-07-13T09:50:32;28.90;45.60
25732;DHT22;13585;50.864;4.406;2023-07-13T09:52:57;29.00;45.60
25732;DHT22;13585;50.864;4.406;2023-07-13T09:55:29;29.00;45.60
25732;DHT22;13585;50.864;4.406;2023-07-13T09:57:55;29.00;45.60
25732;DHT22;13585;50.864;4.406;2023-07-13T10:00:26;29.00;45.60
25732;DHT22;13585;50.864;4.406;2023-07-13T10:03:02;29.00;45.60
25732;DHT22;13585;50.864;4.406;2023-07-13T10:05:38;29.00;45.60
25732;DHT22;13585;50.864;4.406;2023-07-13T10:08:09;29.00;45.60
25732;DHT22;13585;50.864;4.406;2023-07-13T10:10:40;29.00;45.60
25732;DHT22;13585;50.864;4.406;2023-07-13T10:13:23;29.00;45.60
25732;DHT22;13585;50.864;4.406;2023-07-13T10:15:51;29.00;45.70
25732;DHT22;13585;50.864;4.406;2023-07-13T10:18:17;29.00;45.60
25732;DHT22;13585;50.864;4.406;2023-07-13T10:20:43;29.00;45.60
25732;DHT22;13585;50.864;4.406;2023-07-13T10:23:15;29.00;45.70
25732;DHT22;13585;50.864;4.406;2023-07-13T10:25:46;29.00;45.70
25732;DHT22;13585;50.864;4.406;2023-07-13T10:28:29;29.00;45.70
25732;DHT22;13585;50.864;4.406;2023-07-13T10:30:56;29.00;45.80
25732;DHT22;13585;50.864;4.406;2023-07-13T10:33:23;29.00;45.80
25732;DHT22;13585;50.864;4.406;2023-07-13T10:35:52;29.00;45.80
25732;DHT22;13585;50.864;4.406;2023-07-13T10:38:23;29.00;45.80
25732;DHT22;13585;50.864;4.406;2023-07-13T10:41:19;29.00;46.50
25732;DHT22;13585;50.864;4.406;2023-07-13T10:43:49;29.00;45.90
25732;DHT22;13585;50.864;4.406;2023-07-13T10:46:18;29.00;45.90
25732;DHT22;13585;50.864;4.406;2023-07-13T10:48:47;29.00;45.90
25732;DHT22;13585;50.864;4.406;2023-07-13T10:51:17;29.00;45.90
25732;DHT22;13585;50.864;4.406;2023-07-13T10:53:43;29.00;45.90
25732;DHT22;13585;50.864;4.406;2023-07-13T10:56:29;29.00;45.90
25732;DHT22;13585;50.864;4.406;2023-07-13T11:01:55;29.00;45.90
25732;DHT22;13585;50.864;4.406;2023-07-13T11:04:22;29.00;45.80
25732;DHT22;13585;50.864;4.406;2023-07-13T11:06:52;29.00;45.80
25732;DHT22;13585;50.864;4.406;2023-07-13T11:09:37;29.00;45.80
25732;DHT22;13585;50.864;4.406;2023-07-13T11:12:10;29.00;45.90
25732;DHT22;13585;50.864;4.406;2023-07-13T11:22:49;29.10;46.00
25732;DHT22;13585;50.864;4.406;2023-07-13T11:25:39;29.00;46.00
25732;DHT22;13585;50.864;4.406;2023-07-13T11:31:12;29.00;46.10
25732;DHT22;13585;50.864;4.406;2023-07-13T11:36:18;29.00;46.00
25732;DHT22;13585;50.864;4.406;2023-07-13T11:41:59;29.00;46.20
25732;DHT22;13585;50.864;4.406;2023-07-13T11:44:28;29.00;46.20
25732;DHT22;13585;50.864;4.406;2023-07-13T11:47:29;29.00;46.00
25732;DHT22;13585;50.864;4.406;2023-07-13T11:50:05;29.00;46.10
25732;DHT22;13585;50.864;4.406;2023-07-13T11:52:36;29.00;46.10
25732;DHT22;13585;50.864;4.406;2023-07-13T11:55:08;29.00;46.00
25732;DHT22;13585;50.864;4.406;2023-07-13T11:57:56;29.00;46.00
25732;DHT22;13585;50.864;4.406;2023-07-13T12:00:29;29.00;46.10
25732;DHT22;13585;50.864;4.406;2023-07-13T12:02:58;29.00;46.00
25732;DHT22;13585;50.864;4.406;2023-07-13T12:05:24;29.10;46.00
25732;DHT22;13585;50.864;4.406;2023-07-13T12:07:51;29.10;46.00
25732;DHT22;13585;50.864;4.406;2023-07-13T12:12:54;29.10;46.10
25732;DHT22;13585;50.864;4.406;2023-07-13T12:15:21;29.10;46.00
25732;DHT22;13585;50.864;4.406;2023-07-13T12:17:48;29.10;46.00
25732;DHT22;13585;50.864;4.406;2023-07-13T12:20:23;29.10;46.00
25732;DHT22;13585;50.864;4.406;2023-07-13T12:22:50;29.00;46.00
25732;DHT22;13585;50.864;4.406;2023-07-13T12:25:16;29.10;46.00
25732;DHT22;13585;50.864;4.406;2023-07-13T12:27:49;29.10;46.10
25732;DHT22;13585;50.864;4.406;2023-07-13T12:33:01;29.00;46.00
25732;DHT22;13585;50.864;4.406;2023-07-13T12:35:30;29.10;46.00
25732;DHT22;13585;50.864;4.406;2023-07-13T12:37:58;29.10;45.90
25732;DHT22;13585;50.864;4.406;2023-07-13T12:40:31;29.10;45.80
25732;DHT22;13585;50.864;4.406;2023-07-13T12:42:58;29.10;45.70
25732;DHT22;13585;50.864;4.406;2023-07-13T12:45:27;29.10;45.70
25732;DHT22;13585;50.864;4.406;2023-07-13T12:48:04;29.10;45.90
25732;DHT22;13585;50.864;4.406;2023-07-13T12:50:41;29.10;45.90
25732;DHT22;13585;50.864;4.406;2023-07-13T12:53:14;29.10;46.00
25732;DHT22;13585;50.864;4.406;2023-07-13T12:56:01;29.10;46.10
25732;DHT22;13585;50.864;4.406;2023-07-13T12:58:39;29.10;46.20
25732;DHT22;13585;50.864;4.406;2023-07-13T13:01:07;29.10;46.30
25732;DHT22;13585;50.864;4.406;2023-07-13T13:03:40;29.10;46.20
25732;DHT22;13585;50.864;4.406;2023-07-13T13:06:21;29.10;46.20
25732;DHT22;13585;50.864;4.406;2023-07-13T13:08:56;29.00;46.40
25732;DHT22;13585;50.864;4.406;2023-07-13T13:11:24;29.10;46.60
25732;DHT22;13585;50.864;4.406;2023-07-13T13:13:51;29.10;46.80
25732;DHT22;13585;50.864;4.406;2023-07-13T13:16:21;29.10;46.90
25732;DHT22;13585;50.864;4.406;2023-07-13T13:18:48;29.10;47.00
25732;DHT22;13585;50.864;4.406;2023-07-13T13:21:15;29.10;47.00
25732;DHT22;13585;50.864;4.406;2023-07-13T13:23:41;29.10;47.10
25732;DHT22;13585;50.864;4.406;2023-07-13T13:26:12;29.10;47.20
25732;DHT22;13585;50.864;4.406;2023-07-13T13:28:38;29.00;47.20
25732;DHT22;13585;50.864;4.406;2023-07-13T13:31:03;29.10;47.20
25732;DHT22;13585;50.864;4.406;2023-07-13T13:33:29;29.10;47.20
25732;DHT22;13585;50.864;4.406;2023-07-13T13:35:58;29.10;47.30
25732;DHT22;13585;50.864;4.406;2023-07-13T13:38:32;29.10;47.20
25732;DHT22;13585;50.864;4.406;2023-07-13T13:40:58;29.10;47.10
25732;DHT22;13585;50.864;4.406;2023-07-13T13:43:25;29.10;47.30
25732;DHT22;13585;50.864;4.406;2023-07-13T13:45:53;29.10;47.30
25732;DHT22;13585;50.864;4.406;2023-07-13T13:48:31;29.10;47.30
25732;DHT22;13585;50.864;4.406;2023-07-13T13:50:58;29.00;47.10
25732;DHT22;13585;50.864;4.406;2023-07-13T13:53:24;29.10;47.10
25732;DHT22;13585;50.864;4.406;2023-07-13T13:55:50;29.10;47.10
25732;DHT22;13585;50.864;4.406;2023-07-13T13:58:17;29.10;47.10
25732;DHT22;13585;50.864;4.406;2023-07-13T14:00:43;29.00;47.00
25732;DHT22;13585;50.864;4.406;2023-07-13T14:03:20;29.10;47.00
25732;DHT22;13585;50.864;4.406;2023-07-13T14:05:47;29.00;47.00
25732;DHT22;13585;50.864;4.406;2023-07-13T14:08:18;29.10;46.90
25732;DHT22;13585;50.864;4.406;2023-07-13T14:10:45;29.10;46.90
25732;DHT22;13585;50.864;4.406;2023-07-13T14:13:17;29.10;46.80
25732;DHT22;13585;50.864;4.406;2023-07-13T14:15:44;29.10;46.90
25732;DHT22;13585;50.864;4.406;2023-07-13T14:18:11;29.10;46.90
25732;DHT22;13585;50.864;4.406;2023-07-13T14:20:37;29.10;46.90
25732;DHT22;13585;50.864;4.406;2023-07-13T14:23:03;29.10;46.90
25732;DHT22;13585;50.864;4.406;2023-07-13T14:25:32;29.10;47.00
25732;DHT22;13585;50.864;4.406;2023-07-13T14:27:58;29.10;47.10
25732;DHT22;13585;50.864;4.406;2023-07-13T14:30:26;29.10;47.10
25732;DHT22;13585;50.864;4.406;2023-07-13T14:32:52;29.10;47.90
25732;DHT22;13585;50.864;4.406;2023-07-13T14:35:21;29.10;47.30
25732;DHT22;13585;50.864;4.406;2023-07-13T14:37:48;29.20;47.30
25732;DHT22;13585;50.864;4.406;2023-07-13T14:40:16;29.10;47.20
25732;DHT22;13585;50.864;4.406;2023-07-13T14:42:42;29.00;47.10
25732;DHT22;13585;50.864;4.406;2023-07-13T14:45:15;29.10;47.10
25732;DHT22;13585;50.864;4.406;2023-07-13T14:47:42;29.10;47.20
25732;DHT22;13585;50.864;4.406;2023-07-13T14:50:24;29.10;47.10
25732;DHT22;13585;50.864;4.406;2023-07-13T14:52:52;29.10;47.20
25732;DHT22;13585;50.864;4.406;2023-07-13T14:55:18;29.10;47.10
25732;DHT22;13585;50.864;4.406;2023-07-13T14:57:45;29.20;47.20
25732;DHT22;13585;50.864;4.406;2023-07-13T15:00:18;29.20;47.20
25732;DHT22;13585;50.864;4.406;2023-07-13T15:02:47;29.10;47.30
25732;DHT22;13585;50.864;4.406;2023-07-13T15:05:16;29.10;47.20
25732;DHT22;13585;50.864;4.406;2023-07-13T15:07:44;29.10;47.30
25732;DHT22;13585;50.864;4.406;2023-07-13T15:10:30;29.10;47.30
25732;DHT22;13585;50.864;4.406;2023-07-13T15:13:00;29.10;47.40
25732;DHT22;13585;50.864;4.406;2023-07-13T15:15:31;29.10;47.30
25732;DHT22;13585;50.864;4.406;2023-07-13T15:17:59;29.20;47.30
25732;DHT22;13585;50.864;4.406;2023-07-13T15:20:31;29.20;47.30
25732;DHT22;13585;50.864;4.406;2023-07-13T15:23:03;29.20;47.30
25732;DHT22;13585;50.864;4.406;2023-07-13T15:25:31;29.10;47.20
25732;DHT22;13585;50.864;4.406;2023-07-13T15:27:58;29.20;47.20
25732;DHT22;13585;50.864;4.406;2023-07-13T15:30:29;29.20;47.20
25732;DHT22;13585;50.864;4.406;2023-07-13T15:33:01;29.10;47.10
25732;DHT22;13585;50.864;4.406;2023-07-13T15:35:33;29.20;47.20
25732;DHT22;13585;50.864;4.406;2023-07-13T15:37:59;29.20;47.10
25732;DHT22;13585;50.864;4.406;2023-07-13T15:40:25;29.20;47.10
25732;DHT22;13585;50.864;4.406;2023-07-13T15:42:51;29.20;47.10
25732;DHT22;13585;50.864;4.406;2023-07-13T15:45:20;29.20;47.10
25732;DHT22;13585;50.864;4.406;2023-07-13T15:47:47;29.20;47.10
25732;DHT22;13585;50.864;4.406;2023-07-13T15:50:19;29.20;47.00
25732;DHT22;13585;50.864;4.406;2023-07-13T15:52:48;29.20;47.10
25732;DHT22;13585;50.864;4.406;2023-07-13T15:55:14;29.30;47.10
25732;DHT22;13585;50.864;4.406;2023-07-13T15:57:49;29.20;47.00
25732;DHT22;13585;50.864;4.406;2023-07-13T16:00:22;29.20;47.00
25732;DHT22;13585;50.864;4.406;2023-07-13T16:02:49;29.20;46.90
25732;DHT22;13585;50.864;4.406;2023-07-13T16:05:15;29.20;46.90
25732;DHT22;13585;50.864;4.406;2023-07-13T16:07:43;29.20;46.80
25732;DHT22;13585;50.864;4.406;2023-07-13T16:10:14;29.20;46.90
25732;DHT22;13585;50.864;4.406;2023-07-13T16:12:40;29.20;46.80
25732;DHT22;13585;50.864;4.406;2023-07-13T16:15:12;29.20;46.70
25732;DHT22;13585;50.864;4.406;2023-07-13T16:17:42;29.20;46.70
25732;DHT22;13585;50.864;4.406;2023-07-13T16:20:17;29.30;46.70
25732;DHT22;13585;50.864;4.406;2023-07-13T16:22:48;29.20;46.60
25732;DHT22;13585;50.864;4.406;2023-07-13T16:25:17;29.30;46.60
25732;DHT22;13585;50.864;4.406;2023-07-13T16:27:44;29.20;46.60
25732;DHT22;13585;50.864;4.406;2023-07-13T16:30:16;29.30;46.60
25732;DHT22;13585;50.864;4.406;2023-07-13T16:32:44;29.20;46.50
25732;DHT22;13585;50.864;4.406;2023-07-13T16:35:09;29.30;46.50
25732;DHT22;13585;50.864;4.406;2023-07-13T16:37:36;29.20;46.50
25732;DHT22;13585;50.864;4.406;2023-07-13T16:40:05;29.20;46.40
25732;DHT22;13585;50.864;4.406;2023-07-13T16:42:41;29.20;46.40
25732;DHT22;13585;50.864;4.406;2023-07-13T16:45:12;29.20;46.40